sensor_id;sensor_type;location;lat;lon;timestamp;pressure;altitude;pressure_sealevel;temperature;humidity
77263;BME280;66373;52.334;4.806;2024-01-30T00:00:34;102470.34;;;17.43;52.29
77263;BME280;66373;52.334;4.806;2024-01-30T00:03:01;102463.38;;;17.42;52.38
77263;BME280;66373;52.334;4.806;2024-01-30T00:05:29;102465.13;;;17.43;52.26
77263;BME280;66373;52.334;4.806;2024-01-30T00:07:57;102462.53;;;17.43;52.23
77263;BME280;66373;52.334;4.806;2024-01-30T00:10:24;102450.41;;;17.40;52.44
77263;BME280;66373;52.334;4.806;2024-01-30T00:12:51;102459.94;;;17.43;52.58
77263;BME280;66373;52.334;4.806;2024-01-30T00:15:18;102461.69;;;17.41;52.44
77263;BME280;66373;52.334;4.806;2024-01-30T00:17:45;102462.50;;;17.41;52.41
77263;BME280;66373;52.334;4.806;2024-01-30T00:20:13;102451.25;;;17.38;52.41
77263;BME280;66373;52.334;4.806;2024-01-30T00:22:41;102450.41;;;17.40;52.43
77263;BME280;66373;52.334;4.806;2024-01-30T00:25:09;102459.06;;;17.41;52.43
77263;BME280;66373;52.334;4.806;2024-01-30T00:27:36;102446.06;;;17.41;52.47
77263;BME280;66373;52.334;4.806;2024-01-30T00:30:04;102448.66;;;17.39;52.52
77263;BME280;66373;52.334;4.806;2024-01-30T00:32:32;102454.72;;;17.40;52.43
77263;BME280;66373;52.334;4.806;2024-01-30T00:34:59;102463.41;;;17.40;52.64
77263;BME280;66373;52.334;4.806;2024-01-30T00:37:26;102457.34;;;17.40;52.54
77263;BME280;66373;52.334;4.806;2024-01-30T00:39:55;102444.31;;;17.37;52.32
77263;BME280;66373;52.334;4.806;2024-01-30T00:42:22;102448.66;;;17.39;52.43
77263;BME280;66373;52.334;4.806;2024-01-30T00:44:50;102442.59;;;17.39;52.54
77263;BME280;66373;52.334;4.806;2024-01-30T00:47:18;102440.84;;;17.39;52.55
77263;BME280;66373;52.334;4.806;2024-01-30T00:49:45;102441.72;;;17.38;52.49
77263;BME280;66373;52.334;4.806;2024-01-30T00:52:12;102441.72;;;17.38;52.50
77263;BME280;66373;52.334;4.806;2024-01-30T00:54:39;102433.91;;;17.37;52.55
77263;BME280;66373;52.334;4.806;2024-01-30T00:57:08;102449.50;;;17.37;52.58
77263;BME280;66373;52.334;4.806;2024-01-30T00:59:35;102451.25;;;17.38;52.54
77263;BME280;66373;52.334;4.806;2024-01-30T01:02:02;102459.91;;;17.37;52.51
77263;BME280;66373;52.334;4.806;2024-01-30T01:04:29;102450.38;;;17.37;52.50
77263;BME280;66373;52.334;4.806;2024-01-30T01:06:57;102451.25;;;17.38;52.51
77263;BME280;66373;52.334;4.806;2024-01-30T01:09:24;102451.25;;;17.38;52.42
77263;BME280;66373;52.334;4.806;2024-01-30T01:11:51;102451.25;;;17.38;52.53
77263;BME280;66373;52.334;4.806;2024-01-30T01:14:20;102448.66;;;17.39;52.51
77263;BME280;66373;52.334;4.806;2024-01-30T01:16:47;102464.28;;;17.39;52.39
77263;BME280;66373;52.334;4.806;2024-01-30T01:19:13;102456.44;;;17.35;52.49
77263;BME280;66373;52.334;4.806;2024-01-30T01:21:40;102454.72;;;17.38;52.35
77263;BME280;66373;52.334;4.806;2024-01-30T01:24:07;102458.19;;;17.39;52.47
77263;BME280;66373;52.334;4.806;2024-01-30T01:26:34;102453.00;;;17.39;52.51
77263;BME280;66373;52.334;4.806;2024-01-30T01:29:02;102441.72;;;17.38;52.46
77263;BME280;66373;52.334;4.806;2024-01-30T01:31:36;102443.47;;;17.39;52.43
77263;BME280;66373;52.334;4.806;2024-01-30T01:34:09;102435.66;;;17.38;52.43
77263;BME280;66373;52.334;4.806;2024-01-30T01:36:36;102442.59;;;17.39;52.46
77263;BME280;66373;52.334;4.806;2024-01-30T01:39:03;102432.19;;;17.39;52.65
77263;BME280;66373;52.334;4.806;2024-01-30T01:41:31;102440.84;;;17.39;52.52
77263;BME280;66373;52.334;4.806;2024-01-30T01:43:58;102428.66;;;17.34;52.61
77263;BME280;66373;52.334;4.806;2024-01-30T01:46:27;102426.97;;;17.39;52.59
77263;BME280;66373;52.334;4.806;2024-01-30T01:48:56;102416.56;;;17.36;52.39
77263;BME280;66373;52.334;4.806;2024-01-30T01:51:24;102410.50;;;17.38;52.40
77263;BME280;66373;52.334;4.806;2024-01-30T01:53:53;102387.94;;;17.36;52.42
77263;BME280;66373;52.334;4.806;2024-01-30T01:56:22;102394.03;;;17.38;52.47
77263;BME280;66373;52.334;4.806;2024-01-30T01:58:50;102409.63;;;17.38;52.53
77263;BME280;66373;52.334;4.806;2024-01-30T02:01:19;102407.03;;;17.38;52.53
77263;BME280;66373;52.334;4.806;2024-01-30T02:03:47;102405.28;;;17.38;52.67
77263;BME280;66373;52.334;4.806;2024-01-30T02:06:16;102394.91;;;17.38;52.49
77263;BME280;66373;52.334;4.806;2024-01-30T02:08:43;102402.72;;;17.40;52.43
77263;BME280;66373;52.334;4.806;2024-01-30T02:11:10;102399.22;;;17.38;52.60
77263;BME280;66373;52.334;4.806;2024-01-30T02:13:38;102429.56;;;17.39;52.39
77263;BME280;66373;52.334;4.806;2024-01-30T02:16:06;102420.03;;;17.39;52.44
77263;BME280;66373;52.334;4.806;2024-01-30T02:18:33;102408.78;;;17.39;52.41
77263;BME280;66373;52.334;4.806;2024-01-30T02:21:05;102393.16;;;17.37;52.54
77263;BME280;66373;52.334;4.806;2024-01-30T02:23:33;102392.31;;;17.40;52.47
77263;BME280;66373;52.334;4.806;2024-01-30T02:26:00;102405.28;;;17.38;52.40
77263;BME280;66373;52.334;4.806;2024-01-30T02:28:27;102414.84;;;17.38;52.42
77263;BME280;66373;52.334;4.806;2024-01-30T02:30:54;102416.56;;;17.39;52.44
77263;BME280;66373;52.334;4.806;2024-01-30T02:33:22;102419.19;;;17.39;52.46
77263;BME280;66373;52.334;4.806;2024-01-30T02:35:49;102413.13;;;17.40;52.54
77263;BME280;66373;52.334;4.806;2024-01-30T02:38:17;102397.50;;;17.40;52.53
77263;BME280;66373;52.334;4.806;2024-01-30T02:40:44;102397.50;;;17.38;52.42
77263;BME280;66373;52.334;4.806;2024-01-30T02:43:12;102396.63;;;17.39;52.51
77263;BME280;66373;52.334;4.806;2024-01-30T02:45:39;102400.97;;;17.39;52.44
77263;BME280;66373;52.334;4.806;2024-01-30T02:48:07;102390.53;;;17.36;52.34
77263;BME280;66373;52.334;4.806;2024-01-30T02:50:35;102393.16;;;17.39;52.35
77263;BME280;66373;52.334;4.806;2024-01-30T02:53:02;102389.69;;;17.38;52.50
77263;BME280;66373;52.334;4.806;2024-01-30T02:55:30;102387.97;;;17.39;52.46
77263;BME280;66373;52.334;4.806;2024-01-30T02:57:57;102383.63;;;17.38;52.41
77263;BME280;66373;52.334;4.806;2024-01-30T03:00:24;102388.81;;;17.38;52.47
77263;BME280;66373;52.334;4.806;2024-01-30T03:02:51;102388.81;;;17.38;52.58
77263;BME280;66373;52.334;4.806;2024-01-30T03:05:19;102383.63;;;17.38;52.53
77263;BME280;66373;52.334;4.806;2024-01-30T03:07:46;102368.00;;;17.38;52.59
77263;BME280;66373;52.334;4.806;2024-01-30T03:10:13;102368.00;;;17.38;52.56
77263;BME280;66373;52.334;4.806;2024-01-30T03:12:41;102361.94;;;17.37;52.32
77263;BME280;66373;52.334;4.806;2024-01-30T03:15:09;102362.78;;;17.36;52.50
77263;BME280;66373;52.334;4.806;2024-01-30T03:17:36;102363.66;;;17.37;52.43
77263;BME280;66373;52.334;4.806;2024-01-30T03:20:04;102361.09;;;17.38;52.40
77263;BME280;66373;52.334;4.806;2024-01-30T03:22:32;102354.13;;;17.36;52.38
77263;BME280;66373;52.334;4.806;2024-01-30T03:24:59;102364.53;;;17.36;52.47
77263;BME280;66373;52.334;4.806;2024-01-30T03:27:26;102359.34;;;17.37;52.57
77263;BME280;66373;52.334;4.806;2024-01-30T03:29:54;102357.59;;;17.38;52.49
77263;BME280;66373;52.334;4.806;2024-01-30T03:32:21;102353.28;;;17.38;52.44
77263;BME280;66373;52.334;4.806;2024-01-30T03:34:49;102345.44;;;17.34;52.35
77263;BME280;66373;52.334;4.806;2024-01-30T03:37:16;102358.47;;;17.37;52.41
77263;BME280;66373;52.334;4.806;2024-01-30T03:39:43;102361.06;;;17.37;52.57
77263;BME280;66373;52.334;4.806;2024-01-30T03:42:10;102365.41;;;17.38;52.42
77263;BME280;66373;52.334;4.806;2024-01-30T03:44:37;102364.53;;;17.36;52.45
77263;BME280;66373;52.334;4.806;2024-01-30T03:47:05;102363.66;;;17.37;52.45
77263;BME280;66373;52.334;4.806;2024-01-30T03:49:33;102361.06;;;17.37;52.59
77263;BME280;66373;52.334;4.806;2024-01-30T03:52:00;102354.13;;;17.36;52.39
77263;BME280;66373;52.334;4.806;2024-01-30T03:54:27;102352.38;;;17.35;52.43
77263;BME280;66373;52.334;4.806;2024-01-30T03:56:54;102361.94;;;17.36;52.53
77263;BME280;66373;52.334;4.806;2024-01-30T03:59:21;102354.13;;;17.36;52.50
77263;BME280;66373;52.334;4.806;2024-01-30T04:01:49;102335.00;;;17.27;52.21
77263;BME280;66373;52.334;4.806;2024-01-30T04:04:19;102341.13;;;17.36;52.46
77263;BME280;66373;52.334;4.806;2024-01-30T04:06:46;102347.19;;;17.35;52.47
77263;BME280;66373;52.334;4.806;2024-01-30T04:09:13;102335.88;;;17.31;52.35
77263;BME280;66373;52.334;4.806;2024-01-30T04:11:40;102335.91;;;17.34;52.39
77263;BME280;66373;52.334;4.806;2024-01-30T04:14:07;102347.19;;;17.35;52.57
77263;BME280;66373;52.334;4.806;2024-01-30T04:16:34;102339.34;;;17.32;52.52
77263;BME280;66373;52.334;4.806;2024-01-30T04:19:02;102355.84;;;17.34;52.40
77263;BME280;66373;52.334;4.806;2024-01-30T04:21:30;102348.03;;;17.34;52.38
77263;BME280;66373;52.334;4.806;2024-01-30T04:23:57;102338.47;;;17.29;52.48
77263;BME280;66373;52.334;4.806;2024-01-30T04:26:25;102355.84;;;17.34;52.47
77263;BME280;66373;52.334;4.806;2024-01-30T04:28:52;102354.09;;;17.33;52.61
77263;BME280;66373;52.334;4.806;2024-01-30T04:31:19;102350.66;;;17.34;52.55
77263;BME280;66373;52.334;4.806;2024-01-30T04:33:46;102348.03;;;17.34;52.65
77263;BME280;66373;52.334;4.806;2024-01-30T04:36:13;102334.16;;;17.30;52.51
77263;BME280;66373;52.334;4.806;2024-01-30T04:38:42;102339.34;;;17.32;52.54
77263;BME280;66373;52.334;4.806;2024-01-30T04:41:09;102344.56;;;17.33;52.39
77263;BME280;66373;52.334;4.806;2024-01-30T04:43:36;102338.50;;;17.33;52.49
77263;BME280;66373;52.334;4.806;2024-01-30T04:46:04;102322.84;;;17.26;52.50
77263;BME280;66373;52.334;4.806;2024-01-30T04:48:31;102325.47;;;17.31;52.48
77263;BME280;66373;52.334;4.806;2024-01-30T04:50:58;102326.34;;;17.32;52.60
77263;BME280;66373;52.334;4.806;2024-01-30T04:53:29;102322.00;;;17.30;52.40
77263;BME280;66373;52.334;4.806;2024-01-30T04:55:58;102322.88;;;17.29;52.68
77263;BME280;66373;52.334;4.806;2024-01-30T04:58:25;102311.59;;;17.30;52.63
77263;BME280;66373;52.334;4.806;2024-01-30T05:00:52;102285.53;;;17.18;52.65
77263;BME280;66373;52.334;4.806;2024-01-30T05:03:19;102310.75;;;17.32;52.43
77263;BME280;66373;52.334;4.806;2024-01-30T05:05:48;102311.59;;;17.30;52.39
77263;BME280;66373;52.334;4.806;2024-01-30T05:08:15;102302.94;;;17.28;52.54
77263;BME280;66373;52.334;4.806;2024-01-30T05:10:42;102314.22;;;17.30;52.62
77263;BME280;66373;52.334;4.806;2024-01-30T05:13:10;102313.34;;;17.30;52.43
77263;BME280;66373;52.334;4.806;2024-01-30T05:15:39;102317.66;;;17.29;52.59
77263;BME280;66373;52.334;4.806;2024-01-30T05:18:06;102313.31;;;17.28;52.62
77263;BME280;66373;52.334;4.806;2024-01-30T05:20:33;102317.66;;;17.29;52.60
77263;BME280;66373;52.334;4.806;2024-01-30T05:23:00;102316.81;;;17.30;52.60
77263;BME280;66373;52.334;4.806;2024-01-30T05:25:27;102309.88;;;17.29;52.42
77263;BME280;66373;52.334;4.806;2024-01-30T05:27:54;102311.59;;;17.29;52.53
77263;BME280;66373;52.334;4.806;2024-01-30T05:30:23;102322.00;;;17.29;52.70
77263;BME280;66373;52.334;4.806;2024-01-30T05:32:50;102324.59;;;17.29;52.61
77263;BME280;66373;52.334;4.806;2024-01-30T05:35:18;102317.66;;;17.29;52.80
77263;BME280;66373;52.334;4.806;2024-01-30T05:37:47;102319.38;;;17.27;52.52
77263;BME280;66373;52.334;4.806;2024-01-30T05:40:15;102320.28;;;17.29;52.74
77263;BME280;66373;52.334;4.806;2024-01-30T05:42:42;102315.06;;;17.28;52.71
77263;BME280;66373;52.334;4.806;2024-01-30T05:45:09;102321.16;;;17.32;52.69
77263;BME280;66373;52.334;4.806;2024-01-30T05:47:39;102321.13;;;17.28;52.48
77263;BME280;66373;52.334;4.806;2024-01-30T05:50:07;102317.66;;;17.29;52.64
77263;BME280;66373;52.334;4.806;2024-01-30T05:52:34;102315.03;;;17.25;52.68
77263;BME280;66373;52.334;4.806;2024-01-30T05:55:01;102321.13;;;17.30;52.64
77263;BME280;66373;52.334;4.806;2024-01-30T05:57:29;102321.13;;;17.28;52.58
77263;BME280;66373;52.334;4.806;2024-01-30T05:59:56;102318.53;;;17.30;52.61
77263;BME280;66373;52.334;4.806;2024-01-30T06:02:23;102317.66;;;17.29;52.53
77263;BME280;66373;52.334;4.806;2024-01-30T06:04:52;102314.19;;;17.29;52.68
77263;BME280;66373;52.334;4.806;2024-01-30T06:07:19;102308.13;;;17.28;52.66
77263;BME280;66373;52.334;4.806;2024-01-30T06:09:46;102313.31;;;17.28;52.73
77263;BME280;66373;52.334;4.806;2024-01-30T06:12:13;102315.94;;;17.28;52.91
77263;BME280;66373;52.334;4.806;2024-01-30T06:14:41;102305.50;;;17.25;52.90
77263;BME280;66373;52.334;4.806;2024-01-30T06:17:08;102315.06;;;17.28;52.85
77263;BME280;66373;52.334;4.806;2024-01-30T06:19:37;102329.78;;;17.27;52.79
77263;BME280;66373;52.334;4.806;2024-01-30T06:22:06;102336.72;;;17.28;52.90
77263;BME280;66373;52.334;4.806;2024-01-30T06:24:33;102334.13;;;17.28;53.01
77263;BME280;66373;52.334;4.806;2024-01-30T06:27:00;102316.75;;;17.23;53.03
77263;BME280;66373;52.334;4.806;2024-01-30T06:29:27;102324.59;;;17.27;52.96
77263;BME280;66373;52.334;4.806;2024-01-30T06:31:54;102308.97;;;17.27;53.23
77263;BME280;66373;52.334;4.806;2024-01-30T06:34:21;102314.16;;;17.24;53.15
77263;BME280;66373;52.334;4.806;2024-01-30T06:36:48;102308.09;;;17.24;53.00
77263;BME280;66373;52.334;4.806;2024-01-30T06:39:17;102321.13;;;17.28;52.91
77263;BME280;66373;52.334;4.806;2024-01-30T06:41:44;102317.66;;;17.26;53.26
77263;BME280;66373;52.334;4.806;2024-01-30T06:44:12;102319.38;;;17.27;53.30
77263;BME280;66373;52.334;4.806;2024-01-30T06:46:39;102314.19;;;17.27;53.23
77263;BME280;66373;52.334;4.806;2024-01-30T06:49:06;102316.78;;;17.27;53.25
77263;BME280;66373;52.334;4.806;2024-01-30T06:51:33;102305.50;;;17.27;53.22
77263;BME280;66373;52.334;4.806;2024-01-30T06:54:01;102321.97;;;17.26;53.26
77263;BME280;66373;52.334;4.806;2024-01-30T06:56:29;102320.25;;;17.26;53.25
77263;BME280;66373;52.334;4.806;2024-01-30T06:58:56;102328.06;;;17.26;53.35
77263;BME280;66373;52.334;4.806;2024-01-30T07:01:27;102334.97;;;17.26;53.27
77263;BME280;66373;52.334;4.806;2024-01-30T07:03:55;102326.31;;;17.25;53.21
77263;BME280;66373;52.334;4.806;2024-01-30T07:06:22;102327.19;;;17.26;53.39
77263;BME280;66373;52.334;4.806;2024-01-30T07:08:49;102329.78;;;17.27;53.37
77263;BME280;66373;52.334;4.806;2024-01-30T07:11:18;102327.16;;;17.23;53.20
77263;BME280;66373;52.334;4.806;2024-01-30T07:13:47;102336.72;;;17.25;53.46
77263;BME280;66373;52.334;4.806;2024-01-30T07:16:14;102341.06;;;17.28;53.34
77263;BME280;66373;52.334;4.806;2024-01-30T07:18:41;102345.41;;;17.27;53.29
77263;BME280;66373;52.334;4.806;2024-01-30T07:21:08;102340.19;;;17.27;53.29
77263;BME280;66373;52.334;4.806;2024-01-30T07:23:35;102342.78;;;17.26;53.32
77263;BME280;66373;52.334;4.806;2024-01-30T07:26:04;102341.91;;;17.25;53.50
77263;BME280;66373;52.334;4.806;2024-01-30T07:28:32;102346.25;;;17.26;53.35
77263;BME280;66373;52.334;4.806;2024-01-30T07:31:01;102360.13;;;17.28;53.37
77263;BME280;66373;52.334;4.806;2024-01-30T07:33:29;102349.72;;;17.27;53.46
77263;BME280;66373;52.334;4.806;2024-01-30T07:35:56;102348.84;;;17.26;53.42
77263;BME280;66373;52.334;4.806;2024-01-30T07:38:23;102357.53;;;17.25;53.35
77263;BME280;66373;52.334;4.806;2024-01-30T07:40:50;102350.56;;;17.24;53.44
77263;BME280;66373;52.334;4.806;2024-01-30T07:43:17;102353.19;;;17.24;53.31
77263;BME280;66373;52.334;4.806;2024-01-30T07:45:45;102355.78;;;17.24;53.29
77263;BME280;66373;52.334;4.806;2024-01-30T07:48:14;102361.84;;;17.25;53.27
77263;BME280;66373;52.334;4.806;2024-01-30T07:50:41;102366.19;;;17.24;53.17
77263;BME280;66373;52.334;4.806;2024-01-30T07:53:08;102367.91;;;17.24;53.30
77263;BME280;66373;52.334;4.806;2024-01-30T07:55:35;102367.91;;;17.25;53.39
77263;BME280;66373;52.334;4.806;2024-01-30T07:58:03;102373.97;;;17.24;53.18
77263;BME280;66373;52.334;4.806;2024-01-30T08:00:30;102375.72;;;17.24;53.42
77263;BME280;66373;52.334;4.806;2024-01-30T08:02:57;102370.50;;;17.24;53.25
77263;BME280;66373;52.334;4.806;2024-01-30T08:05:26;102376.56;;;17.21;53.21
77263;BME280;66373;52.334;4.806;2024-01-30T08:07:53;102386.13;;;17.24;53.42
77263;BME280;66373;52.334;4.806;2024-01-30T08:10:20;102385.22;;;17.22;53.39
77263;BME280;66373;52.334;4.806;2024-01-30T08:12:47;102385.25;;;17.23;53.30
77263;BME280;66373;52.334;4.806;2024-01-30T08:15:14;102373.09;;;17.22;53.20
77263;BME280;66373;52.334;4.806;2024-01-30T08:17:41;102376.56;;;17.21;53.33
77263;BME280;66373;52.334;4.806;2024-01-30T08:20:11;102389.56;;;17.23;53.37
77263;BME280;66373;52.334;4.806;2024-01-30T08:22:39;102378.31;;;17.22;53.37
77263;BME280;66373;52.334;4.806;2024-01-30T08:25:07;102386.13;;;17.24;53.28
77263;BME280;66373;52.334;4.806;2024-01-30T08:27:35;102393.91;;;17.24;53.25
77263;BME280;66373;52.334;4.806;2024-01-30T08:30:05;102375.72;;;17.24;53.32
77263;BME280;66373;52.334;4.806;2024-01-30T08:32:33;102379.16;;;17.23;53.37
77263;BME280;66373;52.334;4.806;2024-01-30T08:35:00;102386.97;;;17.23;53.49
77263;BME280;66373;52.334;4.806;2024-01-30T08:37:29;102395.63;;;17.22;53.35
77263;BME280;66373;52.334;4.806;2024-01-30T08:39:58;102398.22;;;17.22;53.41
77263;BME280;66373;52.334;4.806;2024-01-30T08:42:25;102401.72;;;17.22;53.28
77263;BME280;66373;52.334;4.806;2024-01-30T08:44:52;102402.56;;;17.21;53.40
77263;BME280;66373;52.334;4.806;2024-01-30T08:47:20;102399.09;;;17.22;53.36
77263;BME280;66373;52.334;4.806;2024-01-30T08:49:47;102406.03;;;17.20;53.23
77263;BME280;66373;52.334;4.806;2024-01-30T08:52:14;102403.44;;;17.22;53.33
77263;BME280;66373;52.334;4.806;2024-01-30T08:54:41;102404.31;;;17.22;53.38
77263;BME280;66373;52.334;4.806;2024-01-30T08:57:10;102403.41;;;17.20;53.37
77263;BME280;66373;52.334;4.806;2024-01-30T08:59:37;102402.56;;;17.21;53.50
77263;BME280;66373;52.334;4.806;2024-01-30T09:02:04;102402.56;;;17.21;53.60
77263;BME280;66373;52.334;4.806;2024-01-30T09:04:31;102400.81;;;17.20;53.70
77263;BME280;66373;52.334;4.806;2024-01-30T09:06:58;102401.69;;;17.19;53.68
77263;BME280;66373;52.334;4.806;2024-01-30T09:09:25;102392.09;;;17.15;53.76
77263;BME280;66373;52.334;4.806;2024-01-30T09:11:52;102407.75;;;17.18;53.77
77263;BME280;66373;52.334;4.806;2024-01-30T09:14:21;102404.28;;;17.19;53.59
77263;BME280;66373;52.334;4.806;2024-01-30T09:16:48;102409.47;;;17.19;53.72
77263;BME280;66373;52.334;4.806;2024-01-30T09:19:15;102412.94;;;17.18;53.71
77263;BME280;66373;52.334;4.806;2024-01-30T09:21:42;102407.75;;;17.18;53.71
77263;BME280;66373;52.334;4.806;2024-01-30T09:24:09;102417.28;;;17.19;53.79
77263;BME280;66373;52.334;4.806;2024-01-30T09:26:36;102416.41;;;17.17;53.79
77263;BME280;66373;52.334;4.806;2024-01-30T09:29:04;102420.75;;;17.18;53.63
77263;BME280;66373;52.334;4.806;2024-01-30T09:31:32;102421.59;;;17.17;53.56
77263;BME280;66373;52.334;4.806;2024-01-30T09:33:59;102421.59;;;17.16;53.74
77263;BME280;66373;52.334;4.806;2024-01-30T09:36:26;102432.00;;;17.17;53.73
77263;BME280;66373;52.334;4.806;2024-01-30T09:38:54;102433.75;;;17.18;53.60
77263;BME280;66373;52.334;4.806;2024-01-30T09:41:23;102437.19;;;17.17;53.73
77263;BME280;66373;52.334;4.806;2024-01-30T09:43:51;102450.22;;;17.19;54.07
77263;BME280;66373;52.334;4.806;2024-01-30T09:46:21;102439.78;;;17.13;54.48
77263;BME280;66373;52.334;4.806;2024-01-30T09:48:55;102460.59;;;17.17;54.34
77263;BME280;66373;52.334;4.806;2024-01-30T09:51:22;102457.13;;;17.17;54.46
77263;BME280;66373;52.334;4.806;2024-01-30T09:53:50;102460.59;;;17.17;54.58
77263;BME280;66373;52.334;4.806;2024-01-30T09:56:17;102458.88;;;17.15;54.72
77263;BME280;66373;52.334;4.806;2024-01-30T09:58:45;102456.25;;;17.16;54.66
77263;BME280;66373;52.334;4.806;2024-01-30T10:01:13;102437.19;;;17.14;54.60
77263;BME280;66373;52.334;4.806;2024-01-30T10:03:44;102442.41;;;17.14;54.60
77263;BME280;66373;52.334;4.806;2024-01-30T10:06:14;102462.31;;;17.12;54.72
77263;BME280;66373;52.334;4.806;2024-01-30T10:08:43;102479.66;;;17.13;54.78
77263;BME280;66373;52.334;4.806;2024-01-30T10:11:10;102464.03;;;17.12;54.62
77263;BME280;66373;52.334;4.806;2024-01-30T10:13:39;102460.56;;;17.11;54.66
77263;BME280;66373;52.334;4.806;2024-01-30T10:16:06;102465.75;;;17.10;54.67
77263;BME280;66373;52.334;4.806;2024-01-30T10:18:33;102470.09;;;17.09;54.71
77263;BME280;66373;52.334;4.806;2024-01-30T10:21:00;102467.50;;;17.09;54.72
77263;BME280;66373;52.334;4.806;2024-01-30T10:23:30;102467.47;;;17.08;54.78
77263;BME280;66373;52.334;4.806;2024-01-30T10:25:57;102466.59;;;17.07;54.58
77263;BME280;66373;52.334;4.806;2024-01-30T10:28:27;102467.50;;;17.09;54.64
77263;BME280;66373;52.334;4.806;2024-01-30T10:30:58;102472.69;;;17.09;54.57
77263;BME280;66373;52.334;4.806;2024-01-30T10:33:26;102467.47;;;17.06;54.58
77263;BME280;66373;52.334;4.806;2024-01-30T10:35:57;102470.06;;;17.08;54.76
77263;BME280;66373;52.334;4.806;2024-01-30T10:38:30;102478.75;;;17.08;54.63
77263;BME280;66373;52.334;4.806;2024-01-30T10:40:59;102481.34;;;17.07;54.71
77263;BME280;66373;52.334;4.806;2024-01-30T10:43:30;102477.84;;;17.05;54.56
77263;BME280;66373;52.334;4.806;2024-01-30T10:46:06;102490.84;;;17.06;54.55
77263;BME280;66373;52.334;4.806;2024-01-30T10:48:36;102484.78;;;17.06;54.70
77263;BME280;66373;52.334;4.806;2024-01-30T10:51:10;102496.91;;;17.05;54.52
77263;BME280;66373;52.334;4.806;2024-01-30T10:53:41;102503.84;;;17.05;54.37
77263;BME280;66373;52.334;4.806;2024-01-30T10:56:11;102504.72;;;17.05;54.46
77263;BME280;66373;52.334;4.806;2024-01-30T10:58:39;102507.28;;;17.04;54.33
77263;BME280;66373;52.334;4.806;2024-01-30T11:01:07;102506.44;;;17.03;54.55
77263;BME280;66373;52.334;4.806;2024-01-30T11:03:35;102503.81;;;17.03;54.54
77263;BME280;66373;52.334;4.806;2024-01-30T11:06:03;102491.66;;;16.99;54.53
77263;BME280;66373;52.334;4.806;2024-01-30T11:08:32;102503.78;;;17.00;54.46
77263;BME280;66373;52.334;4.806;2024-01-30T11:11:01;102513.34;;;17.01;54.67
77263;BME280;66373;52.334;4.806;2024-01-30T11:13:29;102502.91;;;16.98;54.57
77263;BME280;66373;52.334;4.806;2024-01-30T11:16:00;102502.06;;;17.01;54.33
77263;BME280;66373;52.334;4.806;2024-01-30T11:18:29;102508.16;;;17.03;54.57
77263;BME280;66373;52.334;4.806;2024-01-30T11:20:57;102509.03;;;17.03;54.54
77263;BME280;66373;52.334;4.806;2024-01-30T11:23:26;102508.16;;;17.03;54.43
77263;BME280;66373;52.334;4.806;2024-01-30T11:25:54;102509.88;;;17.02;54.48
77263;BME280;66373;52.334;4.806;2024-01-30T11:28:23;102508.13;;;17.01;54.45
77263;BME280;66373;52.334;4.806;2024-01-30T11:30:50;102510.75;;;17.03;54.30
77263;BME280;66373;52.334;4.806;2024-01-30T11:33:27;102521.16;;;17.03;54.44
77263;BME280;66373;52.334;4.806;2024-01-30T11:35:57;102510.75;;;17.03;54.36
77263;BME280;66373;52.334;4.806;2024-01-30T11:38:26;102509.88;;;17.02;54.28
77263;BME280;66373;52.334;4.806;2024-01-30T11:40:54;102495.97;;;16.99;54.30
77263;BME280;66373;52.334;4.806;2024-01-30T11:43:24;102490.75;;;16.97;54.22
77263;BME280;66373;52.334;4.806;2024-01-30T11:45:51;102501.19;;;17.00;54.04
77263;BME280;66373;52.334;4.806;2024-01-30T11:48:18;102505.56;;;17.03;54.11
77263;BME280;66373;52.334;4.806;2024-01-30T11:50:46;102504.69;;;17.02;54.30
77263;BME280;66373;52.334;4.806;2024-01-30T11:53:13;102509.03;;;17.03;54.12
77263;BME280;66373;52.334;4.806;2024-01-30T11:55:40;102506.41;;;17.02;54.15
77263;BME280;66373;52.334;4.806;2024-01-30T11:58:08;102511.63;;;17.03;54.20
77263;BME280;66373;52.334;4.806;2024-01-30T12:00:37;102509.88;;;17.02;54.24
77263;BME280;66373;52.334;4.806;2024-01-30T12:03:04;102518.56;;;17.04;54.18
77263;BME280;66373;52.334;4.806;2024-01-30T12:05:32;102516.81;;;17.03;54.27
77263;BME280;66373;52.334;4.806;2024-01-30T12:07:59;102517.69;;;17.04;54.26
77263;BME280;66373;52.334;4.806;2024-01-30T12:10:26;102521.16;;;17.03;54.06
77263;BME280;66373;52.334;4.806;2024-01-30T12:12:54;102524.63;;;17.03;54.06
77263;BME280;66373;52.334;4.806;2024-01-30T12:15:22;102522.88;;;17.02;54.00
77263;BME280;66373;52.334;4.806;2024-01-30T12:17:50;102522.00;;;17.00;54.27
77263;BME280;66373;52.334;4.806;2024-01-30T12:20:18;102525.47;;;17.02;54.13
77263;BME280;66373;52.334;4.806;2024-01-30T12:22:48;102521.13;;;17.01;54.30
77263;BME280;66373;52.334;4.806;2024-01-30T12:25:16;102523.72;;;17.01;54.10
77263;BME280;66373;52.334;4.806;2024-01-30T12:27:45;102520.25;;;16.99;54.10
77263;BME280;66373;52.334;4.806;2024-01-30T12:30:15;102539.34;;;17.01;54.04
77263;BME280;66373;52.334;4.806;2024-01-30T12:32:44;102536.75;;;17.03;54.07
77263;BME280;66373;52.334;4.806;2024-01-30T12:35:13;102525.44;;;16.99;54.14
77263;BME280;66373;52.334;4.806;2024-01-30T12:37:42;102528.94;;;17.01;54.09
77263;BME280;66373;52.334;4.806;2024-01-30T12:40:10;102525.44;;;16.99;54.04
77263;BME280;66373;52.334;4.806;2024-01-30T12:42:40;102534.13;;;17.01;54.00
77263;BME280;66373;52.334;4.806;2024-01-30T12:45:08;102541.06;;;17.02;54.21
77263;BME280;66373;52.334;4.806;2024-01-30T12:47:36;102535.84;;;17.01;54.04
77263;BME280;66373;52.334;4.806;2024-01-30T12:50:03;102535.84;;;17.01;53.96
77263;BME280;66373;52.334;4.806;2024-01-30T12:52:32;102527.16;;;16.97;53.95